Time;durP1;ratioP1;P1;durP2;ratioP2;P2;SDS_P1;SDS_P2;PMS_P1;PMS_P2;Temp;Humidity;BMP_temperature;BMP_pressure;BME280_temperature;BME280_humidity;BME280_pressure;Samples;Min_cycle;Max_cycle;Signal;HPM_P1;HPM_P2
2023/07/26 00:00:32;;;;;;;5.63;3.03;;;;;;;;;;4998445;28;20037;-77
2023/07/26 00:02:58;;;;;;;3.17;2.60;;;;;;;;;;5011353;28;20029;-78
2023/07/26 00:05:24;;;;;;;3.17;2.88;;;;;;;;;;5018451;28;20471;-77
2023/07/26 00:07:51;;;;;;;3.00;2.65;;;;;;;;;;5023517;28;20030;-77
2023/07/26 00:10:17;;;;;;;3.10;2.80;;;;;;;;;;5027842;28;20125;-79
2023/07/26 00:12:43;;;;;;;3.67;3.15;;;;;;;;;;5027535;28;20026;-78
2023/07/26 00:15:09;;;;;;;4.00;2.80;;;;;;;;;;5028444;28;20030;-78
2023/07/26 00:17:35;;;;;;;2.45;2.25;;;;;;;;;;5027213;28;20491;-78
2023/07/26 00:20:01;;;;;;;3.42;2.90;;;;;;;;;;5026659;28;20037;-78
2023/07/26 00:22:27;;;;;;;2.65;2.45;;;;;;;;;;5028214;28;20014;-77
2023/07/26 00:24:54;;;;;;;4.18;2.80;;;;;;;;;;5028853;28;20045;-78
2023/07/26 00:27:20;;;;;;;3.22;2.60;;;;;;;;;;5028360;28;20053;-78
2023/07/26 00:29:46;;;;;;;4.22;2.65;;;;;;;;;;5030880;28;20037;-78
2023/07/26 00:32:12;;;;;;;3.50;2.72;;;;;;;;;;5030450;28;20026;-78
2023/07/26 00:34:38;;;;;;;3.15;2.65;;;;;;;;;;5028570;28;20029;-76
2023/07/26 00:37:05;;;;;;;3.58;2.63;;;;;;;;;;5008303;28;20357;-77
2023/07/26 00:39:31;;;;;;;3.75;2.90;;;;;;;;;;5009948;28;20030;-78
2023/07/26 00:41:57;;;;;;;3.33;2.83;;;;;;;;;;5009247;28;20022;-78
2023/07/26 00:44:23;;;;;;;3.50;3.20;;;;;;;;;;5021941;28;20038;-79
2023/07/26 00:46:50;;;;;;;3.72;2.80;;;;;;;;;;5019612;28;20014;-78
2023/07/26 00:49:16;;;;;;;3.30;3.00;;;;;;;;;;5004155;28;20089;-79
2023/07/26 00:51:47;;;;;;;2.88;2.58;;;;;;;;;;4999947;28;20026;-78
2023/07/26 00:54:14;;;;;;;4.63;2.63;;;;;;;;;;5014880;28;20026;-79
2023/07/26 00:56:40;;;;;;;3.55;2.83;;;;;;;;;;5000361;28;20020;-78
2023/07/26 00:59:06;;;;;;;2.80;2.60;;;;;;;;;;4998063;28;20022;-78
2023/07/26 01:01:32;;;;;;;2.47;2.28;;;;;;;;;;5000008;28;20028;-77
2023/07/26 01:03:59;;;;;;;2.88;2.67;;;;;;;;;;5028814;28;20096;-78
2023/07/26 01:06:35;;;;;;;4.47;2.85;;;;;;;;;;5019718;28;20034;-76
2023/07/26 01:09:04;;;;;;;3.55;3.20;;;;;;;;;;5019885;28;20429;-77
2023/07/26 01:11:30;;;;;;;3.03;2.83;;;;;;;;;;5019286;28;20045;-78
2023/07/26 01:14:01;;;;;;;3.67;3.15;;;;;;;;;;5014686;28;20034;-79
2023/07/26 01:16:28;;;;;;;3.53;3.23;;;;;;;;;;4997242;28;20105;-79
2023/07/26 01:18:54;;;;;;;4.38;3.97;;;;;;;;;;5000039;28;20018;-78
2023/07/26 01:21:20;;;;;;;4.18;3.78;;;;;;;;;;4999727;28;19913;-76
2023/07/26 01:23:46;;;;;;;3.42;3.13;;;;;;;;;;4998224;28;20165;-79
2023/07/26 01:26:12;;;;;;;3.95;3.17;;;;;;;;;;5014895;28;20037;-77
2023/07/26 01:28:38;;;;;;;4.30;3.70;;;;;;;;;;5015716;28;20067;-78
2023/07/26 01:31:05;;;;;;;3.78;3.47;;;;;;;;;;5016680;28;20041;-78
2023/07/26 01:33:33;;;;;;;3.63;3.33;;;;;;;;;;5017573;28;20026;-78
2023/07/26 01:36:00;;;;;;;5.50;3.90;;;;;;;;;;5014215;28;20486;-78
2023/07/26 01:38:26;;;;;;;5.55;4.18;;;;;;;;;;5014290;28;20036;-78
2023/07/26 01:40:52;;;;;;;5.05;4.15;;;;;;;;;;5015603;28;20026;-80
2023/07/26 01:43:18;;;;;;;4.78;4.38;;;;;;;;;;5014249;28;20029;-79
2023/07/26 01:45:44;;;;;;;4.55;4.15;;;;;;;;;;5014441;28;20026;-77
2023/07/26 01:48:11;;;;;;;4.97;4.15;;;;;;;;;;5014960;28;20036;-77
2023/07/26 01:50:37;;;;;;;5.97;4.55;;;;;;;;;;5014203;28;20026;-80
2023/07/26 01:53:03;;;;;;;4.60;4.10;;;;;;;;;;5013448;28;20080;-78
2023/07/26 01:55:29;;;;;;;4.47;4.07;;;;;;;;;;5012044;28;20029;-78
2023/07/26 01:57:55;;;;;;;4.32;3.92;;;;;;;;;;4998099;28;20431;-78
2023/07/26 02:00:21;;;;;;;7.93;5.15;;;;;;;;;;4995124;28;20049;-78
2023/07/26 02:02:47;;;;;;;5.68;4.55;;;;;;;;;;5000633;28;20018;-78
2023/07/26 02:05:13;;;;;;;4.07;3.67;;;;;;;;;;5009181;28;20506;-78
2023/07/26 02:07:39;;;;;;;5.82;4.97;;;;;;;;;;5012443;28;20033;-79
2023/07/26 02:10:05;;;;;;;4.78;4.20;;;;;;;;;;5014404;28;20049;-77
2023/07/26 02:12:31;;;;;;;5.53;4.63;;;;;;;;;;5014063;28;20075;-79
2023/07/26 02:14:59;;;;;;;5.57;4.80;;;;;;;;;;5016850;28;20041;-78
2023/07/26 02:17:25;;;;;;;4.75;4.03;;;;;;;;;;5013125;28;20026;-79
2023/07/26 02:19:51;;;;;;;4.50;3.75;;;;;;;;;;5014445;28;20427;-79
2023/07/26 02:22:17;;;;;;;6.82;5.30;;;;;;;;;;5015171;28;20022;-79
2023/07/26 02:24:43;;;;;;;7.85;4.68;;;;;;;;;;5014437;28;20021;-78
2023/07/26 02:27:09;;;;;;;5.18;4.72;;;;;;;;;;5002044;28;20030;-78
2023/07/26 02:29:35;;;;;;;6.20;4.78;;;;;;;;;;4998060;28;20025;-78
2023/07/26 02:32:01;;;;;;;6.00;4.43;;;;;;;;;;4999470;28;20030;-77
2023/07/26 02:34:27;;;;;;;4.93;4.05;;;;;;;;;;5015192;28;20026;-78
2023/07/26 02:36:53;;;;;;;4.10;3.70;;;;;;;;;;5013399;28;20076;-79
2023/07/26 02:39:19;;;;;;;3.90;3.60;;;;;;;;;;5013007;28;20073;-78
2023/07/26 02:41:45;;;;;;;5.72;4.72;;;;;;;;;;5015257;28;20030;-78
2023/07/26 02:44:11;;;;;;;5.20;4.70;;;;;;;;;;5011672;28;20026;-77
2023/07/26 02:46:38;;;;;;;8.15;5.10;;;;;;;;;;4996666;28;20078;-79
2023/07/26 02:49:04;;;;;;;5.22;4.63;;;;;;;;;;4995352;28;20523;-79
2023/07/26 02:51:30;;;;;;;5.53;5.03;;;;;;;;;;4994341;28;20057;-79
2023/07/26 02:53:56;;;;;;;4.40;4.00;;;;;;;;;;4999433;28;20026;-80
2023/07/26 02:56:22;;;;;;;5.03;4.32;;;;;;;;;;4997196;28;20027;-78
2023/07/26 02:58:48;;;;;;;5.22;4.40;;;;;;;;;;5016104;28;20026;-79
2023/07/26 03:01:14;;;;;;;5.70;4.55;;;;;;;;;;5022664;28;20571;-79
2023/07/26 03:03:42;;;;;;;6.55;4.72;;;;;;;;;;5017770;28;20030;-80
2023/07/26 03:06:08;;;;;;;9.82;5.00;;;;;;;;;;5019213;28;20076;-80
2023/07/26 03:08:35;;;;;;;6.53;4.80;;;;;;;;;;5018102;28;20084;-79
2023/07/26 03:11:01;;;;;;;5.25;4.70;;;;;;;;;;5023517;28;20474;-78
2023/07/26 03:13:27;;;;;;;4.95;4.45;;;;;;;;;;5017537;28;20082;-79
2023/07/26 03:15:54;;;;;;;7.03;5.15;;;;;;;;;;5017954;28;20052;-79
2023/07/26 03:18:20;;;;;;;5.75;5.07;;;;;;;;;;5018083;28;20022;-81
2023/07/26 03:20:46;;;;;;;4.97;4.53;;;;;;;;;;5021337;28;20067;-79
2023/07/26 03:23:13;;;;;;;5.22;4.43;;;;;;;;;;5017220;28;20041;-79
2023/07/26 03:25:39;;;;;;;4.80;4.40;;;;;;;;;;4998089;28;20114;-78
2023/07/26 03:28:05;;;;;;;5.72;4.75;;;;;;;;;;5003821;28;20022;-79
2023/07/26 03:30:31;;;;;;;5.90;4.70;;;;;;;;;;5003227;28;20073;-79
2023/07/26 03:32:57;;;;;;;4.28;3.97;;;;;;;;;;5004101;28;20498;-79
2023/07/26 03:35:23;;;;;;;5.53;5.00;;;;;;;;;;5015101;28;20033;-79
2023/07/26 03:37:49;;;;;;;5.53;4.75;;;;;;;;;;5017541;28;20030;-80
2023/07/26 03:40:15;;;;;;;5.50;4.63;;;;;;;;;;5037200;28;20065;-79
2023/07/26 03:42:41;;;;;;;5.25;4.80;;;;;;;;;;5010520;28;20038;-79
2023/07/26 03:45:07;;;;;;;4.65;4.20;;;;;;;;;;5000487;28;20026;-80
2023/07/26 03:47:34;;;;;;;4.72;4.05;;;;;;;;;;5017448;28;20046;-79
2023/07/26 03:50:00;;;;;;;5.75;4.88;;;;;;;;;;5004505;28;20506;-79
2023/07/26 03:52:26;;;;;;;7.45;5.30;;;;;;;;;;5025114;28;20030;-81
2023/07/26 03:54:52;;;;;;;5.10;4.60;;;;;;;;;;5008890;28;20038;-80
2023/07/26 03:57:18;;;;;;;5.50;4.95;;;;;;;;;;5000691;28;20030;-79
2023/07/26 03:59:44;;;;;;;5.03;4.25;;;;;;;;;;4999912;28;20034;-77
2023/07/26 04:02:10;;;;;;;4.97;4.50;;;;;;;;;;5000407;28;20030;-79
2023/07/26 04:04:36;;;;;;;4.75;4.35;;;;;;;;;;5018585;28;20037;-80
2023/07/26 04:07:03;;;;;;;6.45;5.60;;;;;;;;;;5000278;28;20502;-79
2023/07/26 04:09:29;;;;;;;6.68;5.90;;;;;;;;;;5000529;28;20372;-79
2023/07/26 04:11:56;;;;;;;6.63;5.82;;;;;;;;;;4999385;28;20030;-79
2023/07/26 04:14:22;;;;;;;5.78;5.18;;;;;;;;;;5019056;28;20041;-78
2023/07/26 04:16:49;;;;;;;6.72;5.78;;;;;;;;;;5000607;28;20027;-80
2023/07/26 04:19:15;;;;;;;6.95;5.30;;;;;;;;;;5018668;28;20035;-79
2023/07/26 04:21:41;;;;;;;8.23;7.15;;;;;;;;;;5006866;28;20399;-79
2023/07/26 04:24:07;;;;;;;6.53;5.85;;;;;;;;;;5002866;28;20018;-78
2023/07/26 04:26:33;;;;;;;8.52;6.97;;;;;;;;;;5017776;28;20030;-80
2023/07/26 04:28:59;;;;;;;7.38;5.70;;;;;;;;;;5001027;28;20019;-79
2023/07/26 04:31:25;;;;;;;7.57;6.88;;;;;;;;;;5017763;28;20026;-78
2023/07/26 04:33:51;;;;;;;7.30;6.60;;;;;;;;;;5015601;28;20084;-79
2023/07/26 04:36:17;;;;;;;8.52;6.53;;;;;;;;;;5009553;28;20054;-80
2023/07/26 04:38:43;;;;;;;7.25;6.45;;;;;;;;;;5005069;28;20069;-79
2023/07/26 04:41:10;;;;;;;9.30;7.43;;;;;;;;;;5011090;28;20057;-80
2023/07/26 04:43:36;;;;;;;8.75;6.93;;;;;;;;;;5012842;28;20022;-79
2023/07/26 04:46:02;;;;;;;7.93;7.13;;;;;;;;;;5006332;28;20007;-80
2023/07/26 04:48:28;;;;;;;7.45;6.22;;;;;;;;;;5002213;28;20034;-78
2023/07/26 04:50:54;;;;;;;8.40;7.15;;;;;;;;;;5015931;28;20125;-79
2023/07/26 04:53:20;;;;;;;8.05;6.35;;;;;;;;;;5014222;28;20045;-78
2023/07/26 04:55:49;;;;;;;7.35;6.65;;;;;;;;;;5000872;28;20022;-79
2023/07/26 04:58:15;;;;;;;11.57;7.75;;;;;;;;;;5002726;28;20422;-80
2023/07/26 05:00:42;;;;;;;10.38;7.78;;;;;;;;;;5017483;28;20061;-79
2023/07/26 05:03:08;;;;;;;8.48;6.93;;;;;;;;;;5012915;28;20018;-78
2023/07/26 05:05:34;;;;;;;7.53;6.80;;;;;;;;;;5010525;28;20109;-78
2023/07/26 05:08:01;;;;;;;8.93;7.55;;;;;;;;;;5021088;28;20034;-80
2023/07/26 05:10:27;;;;;;;9.93;8.73;;;;;;;;;;5019975;28;20305;-80
2023/07/26 05:12:54;;;;;;;10.48;9.32;;;;;;;;;;5019548;28;20030;-78
2023/07/26 05:15:20;;;;;;;11.45;9.20;;;;;;;;;;5018936;28;20072;-79
2023/07/26 05:17:46;;;;;;;10.90;9.20;;;;;;;;;;5019649;28;20029;-78
2023/07/26 05:20:13;;;;;;;14.77;10.55;;;;;;;;;;5020009;28;20056;-78
2023/07/26 05:22:40;;;;;;;10.95;9.20;;;;;;;;;;5020664;28;20092;-79
2023/07/26 05:25:06;;;;;;;12.27;9.55;;;;;;;;;;5021979;28;20077;-79
2023/07/26 05:27:32;;;;;;;15.60;10.98;;;;;;;;;;5019956;28;20391;-82
2023/07/26 05:29:59;;;;;;;10.77;9.63;;;;;;;;;;5020524;28;20057;-80
2023/07/26 05:32:26;;;;;;;10.02;8.95;;;;;;;;;;5022242;28;20048;-79
2023/07/26 05:34:55;;;;;;;12.88;11.52;;;;;;;;;;5021257;28;20057;-80
2023/07/26 05:37:22;;;;;;;13.57;9.93;;;;;;;;;;5018582;28;20053;-78
2023/07/26 05:39:48;;;;;;;11.27;10.10;;;;;;;;;;5021144;28;20033;-80
2023/07/26 05:42:15;;;;;;;11.45;10.25;;;;;;;;;;5025614;28;20053;-79
2023/07/26 05:44:41;;;;;;;11.15;8.82;;;;;;;;;;5009977;28;20102;-79
2023/07/26 05:47:08;;;;;;;9.77;8.27;;;;;;;;;;5022061;28;20097;-80
2023/07/26 05:49:34;;;;;;;9.32;8.23;;;;;;;;;;5023078;28;20034;-81
2023/07/26 05:52:00;;;;;;;11.18;9.48;;;;;;;;;;5011693;28;20405;-80
2023/07/26 05:54:26;;;;;;;10.23;9.13;;;;;;;;;;5008866;28;20031;-81
2023/07/26 05:56:52;;;;;;;11.55;10.38;;;;;;;;;;5003931;28;20030;-78
2023/07/26 05:59:18;;;;;;;13.05;10.15;;;;;;;;;;5002751;28;20046;-80
2023/07/26 06:01:44;;;;;;;11.00;9.90;;;;;;;;;;5023668;28;20072;-79
2023/07/26 06:04:10;;;;;;;11.45;10.35;;;;;;;;;;5023409;28;20026;-80
2023/07/26 06:06:39;;;;;;;13.00;10.75;;;;;;;;;;5019421;28;20041;-80
2023/07/26 06:09:05;;;;;;;15.07;11.00;;;;;;;;;;5020044;28;20026;-79
2023/07/26 06:11:31;;;;;;;16.38;11.15;;;;;;;;;;5024525;28;20109;-80
2023/07/26 06:13:57;;;;;;;14.93;11.05;;;;;;;;;;5022672;28;20037;-83
2023/07/26 06:16:23;;;;;;;14.43;11.15;;;;;;;;;;5021698;28;20448;-81
2023/07/26 06:18:50;;;;;;;19.70;13.73;;;;;;;;;;5001241;28;20030;-78
2023/07/26 06:21:17;;;;;;;17.42;13.07;;;;;;;;;;5012838;28;20026;-79
2023/07/26 06:23:43;;;;;;;18.70;13.57;;;;;;;;;;5017380;28;20599;-79
2023/07/26 06:26:10;;;;;;;15.02;13.50;;;;;;;;;;4997653;28;20052;-79
2023/07/26 06:28:36;;;;;;;17.23;12.90;;;;;;;;;;5015544;28;20030;-79
2023/07/26 06:31:02;;;;;;;16.35;13.65;;;;;;;;;;4998847;28;20030;-79
2023/07/26 06:33:28;;;;;;;17.20;13.70;;;;;;;;;;5012415;28;20014;-80
2023/07/26 06:35:55;;;;;;;17.50;13.35;;;;;;;;;;5019234;28;20030;-79
2023/07/26 06:38:21;;;;;;;19.13;14.25;;;;;;;;;;5020822;28;20029;-78
2023/07/26 06:40:47;;;;;;;16.10;13.13;;;;;;;;;;5018145;28;20057;-78
2023/07/26 06:43:13;;;;;;;16.58;13.93;;;;;;;;;;5016209;28;20022;-78
2023/07/26 06:45:39;;;;;;;18.73;14.75;;;;;;;;;;5019138;28;20105;-83
2023/07/26 06:48:06;;;;;;;16.58;13.13;;;;;;;;;;5020120;28;20367;-80
2023/07/26 06:50:32;;;;;;;16.05;12.57;;;;;;;;;;5012782;28;20463;-79
2023/07/26 06:52:58;;;;;;;15.15;12.80;;;;;;;;;;5008791;28;20041;-82
2023/07/26 06:55:24;;;;;;;14.40;12.48;;;;;;;;;;5019156;28;20030;-79
2023/07/26 06:57:52;;;;;;;17.05;14.45;;;;;;;;;;5003022;28;20022;-79
2023/07/26 07:00:19;;;;;;;16.88;13.45;;;;;;;;;;5008968;28;20046;-79
2023/07/26 07:02:45;;;;;;;15.63;13.45;;;;;;;;;;5018128;28;20019;-79
2023/07/26 07:05:11;;;;;;;19.02;14.05;;;;;;;;;;5003623;28;20023;-81
2023/07/26 07:07:37;;;;;;;20.55;12.98;;;;;;;;;;5007961;28;20054;-80
2023/07/26 07:10:04;;;;;;;12.95;11.48;;;;;;;;;;5012890;28;20031;-81
2023/07/26 07:12:30;;;;;;;16.88;13.20;;;;;;;;;;5001214;28;20030;-79
2023/07/26 07:14:56;;;;;;;14.32;11.80;;;;;;;;;;5014374;28;20022;-79
2023/07/26 07:17:22;;;;;;;12.65;10.52;;;;;;;;;;5007091;28;20042;-82
2023/07/26 07:19:48;;;;;;;11.40;10.30;;;;;;;;;;5019327;28;20054;-79
2023/07/26 07:22:14;;;;;;;12.73;9.82;;;;;;;;;;5018204;28;20045;-81
2023/07/26 07:24:41;;;;;;;13.38;9.45;;;;;;;;;;5025160;28;20046;-81
2023/07/26 07:27:07;;;;;;;12.35;9.63;;;;;;;;;;5026102;28;20034;-80
2023/07/26 07:29:33;;;;;;;12.02;9.35;;;;;;;;;;5029834;28;20112;-79
2023/07/26 07:31:59;;;;;;;9.23;8.23;;;;;;;;;;5027216;28;20030;-79
2023/07/26 07:34:25;;;;;;;10.63;7.70;;;;;;;;;;5024971;28;20021;-79
2023/07/26 07:36:52;;;;;;;10.80;6.47;;;;;;;;;;5027949;28;20057;-79
2023/07/26 07:39:18;;;;;;;8.82;7.20;;;;;;;;;;5025051;28;20056;-79
2023/07/26 07:41:44;;;;;;;5.70;5.20;;;;;;;;;;5029161;28;20057;-78
2023/07/26 07:44:10;;;;;;;4.70;4.30;;;;;;;;;;5026862;28;20026;-79
2023/07/26 07:46:36;;;;;;;7.10;4.63;;;;;;;;;;5029881;28;20034;-80
2023/07/26 07:49:02;;;;;;;6.53;4.95;;;;;;;;;;5020557;28;20048;-79
2023/07/26 07:51:28;;;;;;;5.35;3.78;;;;;;;;;;5021438;28;20025;-80
2023/07/26 07:53:54;;;;;;;6.60;4.40;;;;;;;;;;5022139;28;20038;-79
2023/07/26 07:56:20;;;;;;;7.50;3.85;;;;;;;;;;5022986;28;20101;-80
2023/07/26 07:58:46;;;;;;;4.43;3.42;;;;;;;;;;5007463;28;20049;-80
2023/07/26 08:01:13;;;;;;;6.72;3.85;;;;;;;;;;5002655;28;20034;-79
2023/07/26 08:03:39;;;;;;;4.60;3.78;;;;;;;;;;5032006;28;20030;-79
2023/07/26 08:06:05;;;;;;;4.55;3.55;;;;;;;;;;5014205;28;20026;-79
2023/07/26 08:08:31;;;;;;;5.47;3.72;;;;;;;;;;5009949;28;20491;-79
2023/07/26 08:10:57;;;;;;;5.57;4.53;;;;;;;;;;5013784;28;20038;-81
2023/07/26 08:13:23;;;;;;;4.32;3.72;;;;;;;;;;5010615;28;20035;-79
2023/07/26 08:15:49;;;;;;;5.28;4.00;;;;;;;;;;5013237;28;20038;-80
2023/07/26 08:18:15;;;;;;;6.05;3.53;;;;;;;;;;5004533;28;20030;-78
2023/07/26 08:20:41;;;;;;;3.67;3.25;;;;;;;;;;5022461;28;20141;-81
2023/07/26 08:23:08;;;;;;;4.63;3.20;;;;;;;;;;5037722;23;20067;-81
2023/07/26 08:25:34;;;;;;;3.92;3.63;;;;;;;;;;5021835;28;20056;-81
2023/07/26 08:28:00;;;;;;;3.75;3.33;;;;;;;;;;5022658;28;20091;-81
2023/07/26 08:30:27;;;;;;;4.47;3.45;;;;;;;;;;5048566;28;20025;-82
2023/07/26 08:32:53;;;;;;;3.65;2.97;;;;;;;;;;5041460;28;20025;-80
2023/07/26 08:35:19;;;;;;;3.58;3.28;;;;;;;;;;5041134;28;20033;-82
2023/07/26 08:37:45;;;;;;;3.00;2.67;;;;;;;;;;5042687;28;20378;-81
2023/07/26 08:40:12;;;;;;;3.60;3.28;;;;;;;;;;5044864;28;20033;-81
2023/07/26 08:42:38;;;;;;;7.85;3.50;;;;;;;;;;5051109;28;20063;-79
2023/07/26 08:45:06;;;;;;;5.85;3.50;;;;;;;;;;5057383;28;20036;-79
2023/07/26 08:47:33;;;;;;;4.00;2.75;;;;;;;;;;5041694;28;20036;-78
2023/07/26 08:49:59;;;;;;;16.75;3.33;;;;;;;;;;5035565;28;20082;-80
2023/07/26 08:52:25;;;;;;;4.75;2.55;;;;;;;;;;5023158;28;20084;-80
2023/07/26 08:54:53;;;;;;;3.83;2.65;;;;;;;;;;5020548;28;20026;-81
2023/07/26 08:57:19;;;;;;;2.60;2.40;;;;;;;;;;5023444;28;20034;-80
2023/07/26 08:59:46;;;;;;;5.57;2.08;;;;;;;;;;5021955;28;20044;-79
2023/07/26 09:02:13;;;;;;;4.53;2.20;;;;;;;;;;5029902;28;20037;-80
2023/07/26 09:04:39;;;;;;;4.95;2.40;;;;;;;;;;5040631;28;20013;-80
2023/07/26 09:07:06;;;;;;;3.00;1.98;;;;;;;;;;5025980;28;20080;-81
2023/07/26 09:09:33;;;;;;;2.42;2.17;;;;;;;;;;5025599;28;20026;-81
2023/07/26 09:11:59;;;;;;;2.45;1.90;;;;;;;;;;5023214;28;20087;-80
2023/07/26 09:14:27;;;;;;;2.40;2.20;;;;;;;;;;5023662;28;20026;-82
2023/07/26 09:17:00;;;;;;;4.07;2.40;;;;;;;;;;5022370;28;20125;-81
2023/07/26 09:19:30;;;;;;;4.60;3.20;;;;;;;;;;5023019;28;20026;-81
2023/07/26 09:21:58;;;;;;;3.35;2.28;;;;;;;;;;5025631;28;20045;-82
2023/07/26 09:24:29;;;;;;;3.92;2.45;;;;;;;;;;5027766;28;20053;-81
2023/07/26 09:27:02;;;;;;;2.30;1.50;;;;;;;;;;5035994;28;20057;-80
2023/07/26 09:29:28;;;;;;;2.20;1.55;;;;;;;;;;5036321;28;20034;-80
2023/07/26 09:31:55;;;;;;;1.20;1.20;;;;;;;;;;5034526;28;20040;-81
2023/07/26 09:34:21;;;;;;;2.33;1.38;;;;;;;;;;5034432;28;20057;-80
2023/07/26 09:36:49;;;;;;;2.42;1.38;;;;;;;;;;5027183;28;20457;-82
2023/07/26 09:39:16;;;;;;;1.17;1.00;;;;;;;;;;5022807;28;20453;-81
2023/07/26 09:41:42;;;;;;;4.57;2.10;;;;;;;;;;5021863;28;20524;-82
2023/07/26 09:44:17;;;;;;;2.55;1.60;;;;;;;;;;5022532;28;20069;-82
2023/07/26 09:46:50;;;;;;;1.85;1.40;;;;;;;;;;5023819;28;20018;-80
2023/07/26 09:49:22;;;;;;;4.22;1.30;;;;;;;;;;5027605;28;20041;-80
2023/07/26 09:51:48;;;;;;;0.90;0.88;;;;;;;;;;5024911;28;20049;-80
2023/07/26 09:54:15;;;;;;;2.50;1.00;;;;;;;;;;5022715;28;20025;-80
2023/07/26 09:56:42;;;;;;;1.73;1.10;;;;;;;;;;5023193;28;20014;-82
2023/07/26 09:59:09;;;;;;;2.22;2.03;;;;;;;;;;5021833;28;20032;-81
2023/07/26 10:01:39;;;;;;;1.63;1.50;;;;;;;;;;5021340;28;20026;-81
2023/07/26 10:04:06;;;;;;;1.50;1.40;;;;;;;;;;5022780;28;20029;-82
2023/07/26 10:06:33;;;;;;;1.00;0.95;;;;;;;;;;5022530;28;20030;-81
2023/07/26 10:09:00;;;;;;;1.30;1.10;;;;;;;;;;5020389;28;20044;-81
2023/07/26 10:11:28;;;;;;;2.95;1.58;;;;;;;;;;5028105;28;20018;-80
2023/07/26 10:13:56;;;;;;;2.30;1.50;;;;;;;;;;5040014;28;20362;-80
2023/07/26 10:16:24;;;;;;;1.77;1.30;;;;;;;;;;5041569;28;20049;-79
2023/07/26 10:18:50;;;;;;;2.25;1.20;;;;;;;;;;5032819;28;20022;-79
2023/07/26 10:21:18;;;;;;;0.90;0.90;;;;;;;;;;5028395;28;20217;-82
2023/07/26 10:23:46;;;;;;;1.20;1.00;;;;;;;;;;5021588;28;20089;-81
2023/07/26 10:26:12;;;;;;;1.45;1.10;;;;;;;;;;5022250;28;20024;-80
2023/07/26 10:28:39;;;;;;;1.60;1.10;;;;;;;;;;5020994;28;20030;-81
2023/07/26 10:31:05;;;;;;;0.80;0.80;;;;;;;;;;5021246;28;20026;-81
2023/07/26 10:33:32;;;;;;;2.35;1.02;;;;;;;;;;5016615;28;20423;-81
2023/07/26 10:36:03;;;;;;;0.70;0.70;;;;;;;;;;5020004;28;20022;-82
2023/07/26 10:38:29;;;;;;;1.00;0.85;;;;;;;;;;5021555;28;20117;-80
2023/07/26 10:40:55;;;;;;;2.40;1.50;;;;;;;;;;5028566;28;20028;-80
2023/07/26 10:43:22;;;;;;;3.15;1.30;;;;;;;;;;5048873;28;20044;-80
2023/07/26 10:45:53;;;;;;;1.20;1.10;;;;;;;;;;5049164;28;20118;-80
2023/07/26 10:48:34;;;;;;;1.10;0.65;;;;;;;;;;5030792;28;20038;-80
2023/07/26 10:51:20;;;;;;;0.90;0.77;;;;;;;;;;5021645;28;20133;-79
2023/07/26 10:53:46;;;;;;;1.30;0.85;;;;;;;;;;5020257;28;20098;-80
2023/07/26 10:56:18;;;;;;;0.80;0.80;;;;;;;;;;5026776;28;20029;-81
2023/07/26 10:58:51;;;;;;;0.98;0.90;;;;;;;;;;5021067;28;20033;-80
2023/07/26 11:01:37;;;;;;;1.67;0.90;;;;;;;;;;5018132;28;20100;-79
2023/07/26 11:04:10;;;;;;;1.17;0.93;;;;;;;;;;5018278;28;20041;-79
2023/07/26 11:06:55;;;;;;;1.15;1.05;;;;;;;;;;5017764;28;20101;-81
2023/07/26 11:09:24;;;;;;;1.10;1.00;;;;;;;;;;5020125;28;20022;-80
2023/07/26 11:11:53;;;;;;;1.55;0.95;;;;;;;;;;5024006;28;20091;-80
2023/07/26 11:14:19;;;;;;;2.15;1.00;;;;;;;;;;5019967;28;20380;-79
2023/07/26 11:16:45;;;;;;;1.48;0.93;;;;;;;;;;5021218;28;20026;-80
2023/07/26 11:19:11;;;;;;;1.00;0.75;;;;;;;;;;5023470;28;20030;-80
2023/07/26 11:21:37;;;;;;;0.60;0.60;;;;;;;;;;5024450;28;20084;-79
2023/07/26 11:24:03;;;;;;;0.93;0.73;;;;;;;;;;5024688;28;20120;-79
2023/07/26 11:26:29;;;;;;;0.73;0.68;;;;;;;;;;5027559;28;20030;-80
2023/07/26 11:28:59;;;;;;;4.72;1.00;;;;;;;;;;5027540;28;20018;-78
2023/07/26 11:31:25;;;;;;;1.85;0.80;;;;;;;;;;5028411;28;20053;-79
2023/07/26 11:33:51;;;;;;;0.90;0.90;;;;;;;;;;5021200;28;20057;-81
2023/07/26 11:36:21;;;;;;;1.60;1.08;;;;;;;;;;5020913;28;20470;-81
2023/07/26 11:38:48;;;;;;;1.10;0.80;;;;;;;;;;5019689;28;20037;-80
2023/07/26 11:41:18;;;;;;;2.03;1.17;;;;;;;;;;5024631;28;20093;-81
2023/07/26 11:43:44;;;;;;;1.15;1.00;;;;;;;;;;5026304;28;20029;-81
2023/07/26 11:46:11;;;;;;;0.98;0.98;;;;;;;;;;5029818;28;20018;-81
2023/07/26 11:48:37;;;;;;;1.17;0.82;;;;;;;;;;5035372;28;20034;-81
2023/07/26 11:51:05;;;;;;;1.90;1.45;;;;;;;;;;5033436;28;20084;-81
2023/07/26 11:53:36;;;;;;;4.18;1.52;;;;;;;;;;5031470;28;20021;-80
2023/07/26 11:56:04;;;;;;;1.63;1.33;;;;;;;;;;5021616;28;20536;-81
2023/07/26 11:58:36;;;;;;;3.70;1.30;;;;;;;;;;5027680;28;20140;-79
2023/07/26 12:01:03;;;;;;;2.10;1.27;;;;;;;;;;5035527;28;20042;-80
2023/07/26 12:03:30;;;;;;;1.52;1.10;;;;;;;;;;5036647;28;20048;-80
2023/07/26 12:05:56;;;;;;;1.55;0.90;;;;;;;;;;5021562;28;20129;-80
2023/07/26 12:08:23;;;;;;;1.17;0.80;;;;;;;;;;5024089;28;20026;-82
2023/07/26 12:10:49;;;;;;;1.10;1.00;;;;;;;;;;5026833;28;20305;-79
2023/07/26 12:13:22;;;;;;;0.80;0.80;;;;;;;;;;5020137;28;20076;-80
2023/07/26 12:15:55;;;;;;;2.15;1.25;;;;;;;;;;5022384;28;20041;-80
2023/07/26 12:18:22;;;;;;;1.90;1.10;;;;;;;;;;5022292;28;20057;-81
2023/07/26 12:21:02;;;;;;;2.60;1.27;;;;;;;;;;5022176;28;20026;-80
2023/07/26 12:23:29;;;;;;;1.60;1.23;;;;;;;;;;5035967;28;20033;-80
2023/07/26 12:26:01;;;;;;;3.33;1.20;;;;;;;;;;5051022;28;20025;-80
2023/07/26 12:28:38;;;;;;;2.83;1.10;;;;;;;;;;5055320;28;20031;-80
2023/07/26 12:31:07;;;;;;;0.98;0.90;;;;;;;;;;5046472;28;20026;-81
2023/07/26 12:33:35;;;;;;;2.38;1.15;;;;;;;;;;5049574;28;20093;-81
2023/07/26 12:36:01;;;;;;;1.20;0.93;;;;;;;;;;5010975;28;20085;-80
2023/07/26 12:38:27;;;;;;;0.85;0.85;;;;;;;;;;5018181;28;20489;-81
2023/07/26 12:40:53;;;;;;;3.55;1.58;;;;;;;;;;5020873;28;20180;-80
2023/07/26 12:43:29;;;;;;;1.27;1.10;;;;;;;;;;5022457;28;20022;-80
2023/07/26 12:45:56;;;;;;;4.00;1.27;;;;;;;;;;5018409;28;20451;-81
2023/07/26 12:48:22;;;;;;;1.20;0.85;;;;;;;;;;5018407;28;20037;-83
2023/07/26 12:50:53;;;;;;;3.13;1.40;;;;;;;;;;5019863;28;20033;-81
2023/07/26 12:53:23;;;;;;;1.60;1.20;;;;;;;;;;5018384;28;20026;-81
2023/07/26 12:55:49;;;;;;;2.42;1.13;;;;;;;;;;5024158;28;20041;-81
2023/07/26 12:58:16;;;;;;;3.13;1.10;;;;;;;;;;5025727;28;20087;-80
2023/07/26 13:00:42;;;;;;;1.27;1.15;;;;;;;;;;5042937;28;20030;-80
2023/07/26 13:03:09;;;;;;;2.22;1.10;;;;;;;;;;5038899;28;20028;-80
2023/07/26 13:05:35;;;;;;;1.20;0.93;;;;;;;;;;5038968;28;20022;-80
2023/07/26 13:08:01;;;;;;;0.90;0.80;;;;;;;;;;5037730;28;20033;-81
2023/07/26 13:10:28;;;;;;;1.02;0.93;;;;;;;;;;5018960;28;20032;-81
2023/07/26 13:12:54;;;;;;;1.17;1.08;;;;;;;;;;5019670;28;20063;-80
2023/07/26 13:15:21;;;;;;;2.78;1.17;;;;;;;;;;5025130;28;20025;-79
2023/07/26 13:17:48;;;;;;;1.52;1.27;;;;;;;;;;5022696;28;20026;-82
2023/07/26 13:20:14;;;;;;;3.83;1.48;;;;;;;;;;5018380;28;20040;-81
2023/07/26 13:22:40;;;;;;;1.13;0.90;;;;;;;;;;5018176;28;20038;-81
2023/07/26 13:25:07;;;;;;;1.40;0.90;;;;;;;;;;5031246;28;20020;-80
2023/07/26 13:27:33;;;;;;;0.95;0.68;;;;;;;;;;5030039;28;20025;-81
2023/07/26 13:30:00;;;;;;;1.38;0.75;;;;;;;;;;5018579;28;20055;-81
2023/07/26 13:32:26;;;;;;;2.08;0.88;;;;;;;;;;5020247;28;20041;-81
2023/07/26 13:34:52;;;;;;;1.00;0.90;;;;;;;;;;5026885;28;20105;-81
2023/07/26 13:37:18;;;;;;;1.35;1.00;;;;;;;;;;5022551;28;20025;-79
2023/07/26 13:39:45;;;;;;;0.90;0.90;;;;;;;;;;5023708;28;20054;-81
2023/07/26 13:42:11;;;;;;;1.15;1.02;;;;;;;;;;5027260;28;20022;-81
2023/07/26 13:44:37;;;;;;;1.02;1.00;;;;;;;;;;5021510;28;20030;-82
2023/07/26 13:47:03;;;;;;;0.95;0.80;;;;;;;;;;5021795;28;20045;-81
2023/07/26 13:49:29;;;;;;;1.33;1.00;;;;;;;;;;5023726;28;20056;-81
2023/07/26 13:51:55;;;;;;;0.70;0.70;;;;;;;;;;5035821;28;20033;-80
2023/07/26 13:54:21;;;;;;;1.25;0.88;;;;;;;;;;5048777;28;20025;-80
2023/07/26 13:56:47;;;;;;;1.13;1.02;;;;;;;;;;5049928;28;20040;-80
2023/07/26 13:59:13;;;;;;;2.60;0.90;;;;;;;;;;5042664;28;20037;-81
2023/07/26 14:01:40;;;;;;;0.77;0.77;;;;;;;;;;5039206;28;20034;-80
2023/07/26 14:04:06;;;;;;;0.75;0.75;;;;;;;;;;5038809;28;20022;-80
2023/07/26 14:06:32;;;;;;;0.77;0.70;;;;;;;;;;5038441;28;20033;-79
2023/07/26 14:08:58;;;;;;;0.70;0.70;;;;;;;;;;5027832;28;20021;-79
2023/07/26 14:11:25;;;;;;;0.85;0.80;;;;;;;;;;5017928;28;20033;-79
2023/07/26 14:13:52;;;;;;;1.40;1.00;;;;;;;;;;5017867;28;20084;-81
2023/07/26 14:16:18;;;;;;;0.77;0.70;;;;;;;;;;5019567;28;20036;-82
2023/07/26 14:18:45;;;;;;;2.40;1.00;;;;;;;;;;5018022;28;20089;-81
2023/07/26 14:21:11;;;;;;;1.13;1.00;;;;;;;;;;5021572;28;20025;-79
2023/07/26 14:23:37;;;;;;;1.48;1.00;;;;;;;;;;5040018;28;20120;-81
2023/07/26 14:26:03;;;;;;;1.15;0.82;;;;;;;;;;5039353;28;20022;-80
2023/07/26 14:28:29;;;;;;;0.90;0.90;;;;;;;;;;5038547;28;20029;-81
2023/07/26 14:30:55;;;;;;;1.75;0.93;;;;;;;;;;5040319;28;20041;-80
2023/07/26 14:33:22;;;;;;;1.05;0.95;;;;;;;;;;5041438;28;20056;-81
2023/07/26 14:35:48;;;;;;;1.55;1.30;;;;;;;;;;5040042;28;20035;-80